Time;durP1;ratioP1;P1;durP2;ratioP2;P2;SDS_P1;SDS_P2;PMS_P1;PMS_P2;Temp;Humidity;BMP_temperature;BMP_pressure;BME280_temperature;BME280_humidity;BME280_pressure;Samples;Min_cycle;Max_cycle;Signal;HPM_P1;HPM_P2
2021/09/19 00:02:23;;;;;;;3.33;1.50;;;15.80;72.40;;;;;;4987188;28;95953;-53
2021/09/19 00:04:54;;;;;;;3.67;1.30;;;15.80;72.30;;;;;;4990412;28;95569;-51
2021/09/19 00:07:25;;;;;;;3.50;1.90;;;15.80;72.10;;;;;;4988540;28;96181;-56
2021/09/19 00:09:57;;;;;;;;;;;15.80;72.10;;;;;;4979797;28;95561;-50
2021/09/19 00:12:28;;;;;;;4.35;2.00;;;15.80;72.10;;;;;;4984237;28;96679;-51
2021/09/19 00:14:59;;;;;;;;;;;15.80;72.00;;;;;;4987315;28;96879;-49
2021/09/19 00:17:29;;;;;;;7.07;1.38;;;15.90;72.00;;;;;;4975987;28;96035;-50
2021/09/19 00:20:02;;;;;;;4.43;1.70;;;15.90;72.10;;;;;;5016614;27;95655;-51
2021/09/19 00:22:35;;;;;;;2.85;1.45;;;15.90;63.80;;;;;;4980534;28;96253;-54
2021/09/19 00:25:08;;;;;;;2.92;1.10;;;15.90;71.90;;;;;;4980160;28;96596;-55
2021/09/19 00:27:38;;;;;;;5.28;1.50;;;15.90;71.60;;;;;;4967865;28;95991;-51
2021/09/19 00:30:10;;;;;;;;;;;15.90;71.70;;;;;;4978107;28;97877;-51
2021/09/19 00:32:40;;;;;;;3.60;1.23;;;15.90;71.60;;;;;;4978633;28;96287;-53
2021/09/19 00:35:10;;;;;;;4.13;1.52;;;15.90;71.60;;;;;;4986547;28;97125;-53
2021/09/19 00:37:42;;;;;;;2.45;1.30;;;16.00;71.60;;;;;;4991539;28;95744;-53
2021/09/19 00:40:14;;;;;;;2.53;1.38;;;16.00;71.60;;;;;;4989812;28;95384;-53
2021/09/19 00:42:45;;;;;;;2.38;1.08;;;16.00;71.40;;;;;;4988490;28;97088;-54
2021/09/19 00:45:21;;;;;;;4.93;1.20;;;16.00;71.30;;;;;;4983829;28;95895;-50
2021/09/19 00:47:53;;;;;;;2.30;1.30;;;16.00;71.20;;;;;;4979682;28;95427;-52
2021/09/19 00:50:25;;;;;;;4.15;1.13;;;16.00;71.20;;;;;;4988438;28;95279;-53
2021/09/19 00:52:57;;;;;;;3.67;1.02;;;16.00;71.00;;;;;;4988614;28;96000;-51
2021/09/19 00:55:28;;;;;;;;;;;16.00;70.90;;;;;;4989848;28;96974;-55
2021/09/19 00:58:04;;;;;;;2.38;1.10;;;16.00;70.90;;;;;;4985046;28;96221;-52
2021/09/19 01:00:35;;;;;;;2.92;1.10;;;16.00;70.80;;;;;;4979700;28;95880;-53
2021/09/19 01:03:06;;;;;;;2.65;1.23;;;16.00;70.60;;;;;;4976727;28;96566;-53
2021/09/19 01:05:37;;;;;;;2.23;1.17;;;16.00;70.50;;;;;;4988904;28;95720;-52
2021/09/19 01:08:11;;;;;;;2.20;0.85;;;16.00;70.60;;;;;;4998129;28;96009;-51
2021/09/19 01:10:42;;;;;;;2.47;0.93;;;16.00;70.50;;;;;;4984301;28;95414;-53
2021/09/19 01:13:14;;;;;;;1.05;0.65;;;16.00;70.50;;;;;;4987839;28;96424;-53
2021/09/19 01:15:45;;;;;;;2.22;1.25;;;16.00;70.40;;;;;;4983557;28;95902;-52
2021/09/19 01:18:18;;;;;;;2.45;1.33;;;16.00;70.30;;;;;;4987799;28;95918;-51
2021/09/19 01:20:49;;;;;;;2.95;1.10;;;16.00;70.30;;;;;;4989088;28;95287;-50
2021/09/19 01:23:19;;;;;;;1.90;0.88;;;16.00;70.30;;;;;;4984696;28;96477;-53
2021/09/19 01:25:52;;;;;;;1.70;1.00;;;16.00;70.30;;;;;;4989590;28;95833;-51
2021/09/19 01:28:22;;;;;;;1.77;1.42;;;16.00;70.30;;;;;;4980954;28;96141;-55
2021/09/19 01:30:52;;;;;;;1.85;1.20;;;16.00;70.30;;;;;;4979729;28;96003;-55
2021/09/19 01:33:24;;;;;;;1.48;0.93;;;16.00;70.20;;;;;;4982946;28;96074;-51
2021/09/19 01:35:58;;;;;;;2.53;0.90;;;16.00;70.10;;;;;;4978403;28;96000;-50
2021/09/19 01:38:28;;;;;;;3.42;0.98;;;16.00;70.10;;;;;;4979308;28;95958;-53
2021/09/19 01:41:00;;;;;;;1.17;0.98;;;16.00;70.10;;;;;;4989198;28;95194;-55
2021/09/19 01:43:31;;;;;;;3.53;1.15;;;16.00;70.10;;;;;;4984519;28;96554;-53
2021/09/19 01:46:05;;;;;;;2.25;0.93;;;16.00;70.20;;;;;;4979912;28;95879;-50
2021/09/19 01:48:38;;;;;;;1.55;0.95;;;16.00;70.10;;;;;;4990632;28;96900;-50
2021/09/19 01:51:11;;;;;;;1.23;0.98;;;16.00;70.10;;;;;;4991410;28;95909;-52
2021/09/19 01:53:44;;;;;;;2.90;1.33;;;16.00;70.00;;;;;;5019687;27;96091;-54
2021/09/19 01:56:16;;;;;;;4.40;0.95;;;16.00;70.10;;;;;;4985913;28;96281;-54
2021/09/19 01:58:50;;;;;;;2.03;0.80;;;16.00;70.90;;;;;;4989202;28;95711;-53
2021/09/19 02:01:23;;;;;;;3.42;1.10;;;16.00;70.10;;;;;;4987788;28;95900;-49
2021/09/19 02:03:57;;;;;;;4.10;1.08;;;16.00;70.20;;;;;;4959298;28;98297;-55
2021/09/19 02:06:29;;;;;;;2.22;0.85;;;16.00;70.30;;;;;;4993066;28;95615;-55
2021/09/19 02:09:01;;;;;;;2.05;1.02;;;16.00;70.70;;;;;;5017206;27;95411;-54
2021/09/19 02:11:36;;;;;;;1.90;1.42;;;16.00;70.90;;;;;;4991906;28;95584;-57
2021/09/19 02:14:08;;;;;;;1.30;0.98;;;16.10;70.60;;;;;;4993377;28;95776;-54
2021/09/19 02:16:41;;;;;;;3.05;1.25;;;16.10;69.70;;;;;;4991219;28;95718;-56
2021/09/19 02:19:11;;;;;;;1.23;0.90;;;16.20;70.00;;;;;;4992382;28;95789;-54
2021/09/19 02:21:44;;;;;;;1.80;0.97;;;16.20;70.20;;;;;;4993476;28;96051;-57
2021/09/19 02:24:13;;;;;;;;;;;16.30;70.20;;;;;;4995242;28;95784;-55
2021/09/19 02:26:43;;;;;;;1.60;0.60;;;16.40;70.30;;;;;;4996317;28;95906;-54
2021/09/19 02:29:13;;;;;;;1.73;0.70;;;16.50;70.30;;;;;;4992267;28;95841;-55
2021/09/19 02:31:43;;;;;;;1.20;0.88;;;16.50;70.20;;;;;;4991144;28;104156;-57
2021/09/19 02:34:13;;;;;;;1.40;0.98;;;16.60;70.20;;;;;;4994906;28;95994;-55
2021/09/19 02:36:43;;;;;;;1.08;0.52;;;16.70;70.10;;;;;;4992627;28;96478;-55
2021/09/19 02:39:14;;;;;;;1.83;0.90;;;16.70;70.10;;;;;;5025952;28;96696;-56
2021/09/19 02:41:45;;;;;;;5.15;1.00;;;16.80;70.10;;;;;;4995783;28;95805;-54
2021/09/19 02:44:16;;;;;;;1.40;0.93;;;16.90;70.10;;;;;;4993617;28;95942;-58
2021/09/19 02:46:47;;;;;;;2.87;1.03;;;17.00;62.00;;;;;;4986447;28;97978;-56
2021/09/19 02:49:19;;;;;;;2.15;1.13;;;17.00;69.90;;;;;;4990304;28;95910;-54
2021/09/19 02:51:51;;;;;;;1.15;0.60;;;17.10;69.90;;;;;;4995355;28;95740;-56
2021/09/19 02:54:22;;;;;;;1.38;0.70;;;17.10;69.80;;;;;;4989954;28;95920;-55
2021/09/19 02:56:53;;;;;;;1.07;0.57;;;17.20;69.80;;;;;;4991231;28;95993;-57
2021/09/19 02:59:24;;;;;;;0.55;0.55;;;17.20;69.80;;;;;;5025598;28;95833;-55
2021/09/19 03:01:55;;;;;;;0.60;0.50;;;17.30;69.70;;;;;;4990181;28;96006;-55
2021/09/19 03:04:27;;;;;;;;;;;17.30;69.60;;;;;;4991482;28;95944;-58
2021/09/19 03:06:58;;;;;;;1.40;0.50;;;17.40;69.60;;;;;;4992065;28;95799;-58
2021/09/19 03:09:28;;;;;;;1.48;0.95;;;17.50;69.50;;;;;;4985346;28;95655;-56
2021/09/19 03:12:00;;;;;;;1.67;0.80;;;17.50;69.50;;;;;;4983626;28;95990;-55
2021/09/19 03:14:31;;;;;;;0.75;0.50;;;17.60;69.40;;;;;;4984805;28;96572;-57
2021/09/19 03:17:01;;;;;;;1.17;0.60;;;17.60;69.30;;;;;;4987998;28;96074;-58
2021/09/19 03:19:33;;;;;;;0.52;0.50;;;17.60;69.20;;;;;;4991466;28;97912;-56
2021/09/19 03:22:03;;;;;;;1.40;0.60;;;17.70;69.10;;;;;;4992228;28;95243;-55
2021/09/19 03:24:33;;;;;;;1.05;0.82;;;17.80;69.10;;;;;;4992486;28;95903;-57
2021/09/19 03:27:03;;;;;;;1.10;0.60;;;17.80;69.00;;;;;;4985248;28;95794;-56
2021/09/19 03:29:32;;;;;;;2.00;0.80;;;17.90;69.00;;;;;;4984528;28;96064;-58
2021/09/19 03:32:03;;;;;;;1.02;0.68;;;17.90;68.80;;;;;;4980171;28;97015;-58
2021/09/19 03:34:35;;;;;;;0.57;0.45;;;18.00;68.80;;;;;;4977988;28;95836;-57
2021/09/19 03:37:05;;;;;;;3.13;0.82;;;18.00;68.70;;;;;;4987075;28;95900;-55
2021/09/19 03:39:39;;;;;;;2.33;0.90;;;18.00;67.30;;;;;;4986583;28;95912;-55
2021/09/19 03:42:11;;;;;;;1.67;0.60;;;18.00;66.80;;;;;;4988543;28;95778;-56
2021/09/19 03:44:42;;;;;;;1.98;0.70;;;18.00;67.10;;;;;;4986663;28;95920;-56
2021/09/19 03:47:13;;;;;;;1.27;0.70;;;17.90;67.20;;;;;;4970501;28;97276;-53
2021/09/19 03:49:43;;;;;;;2.20;0.70;;;17.90;67.10;;;;;;4981451;28;95938;-52
2021/09/19 03:52:14;;;;;;;3.03;1.00;;;17.90;67.40;;;;;;4982977;28;95847;-55
2021/09/19 03:54:47;;;;;;;1.90;1.08;;;17.90;67.10;;;;;;4978792;28;95882;-56
2021/09/19 03:57:18;;;;;;;1.50;0.82;;;17.80;67.00;;;;;;4978730;28;95493;-58
2021/09/19 03:59:50;;;;;;;3.33;0.77;;;17.80;67.10;;;;;;4976708;28;95612;-55
2021/09/19 04:02:23;;;;;;;1.70;0.73;;;17.80;67.00;;;;;;4974220;28;98100;-58
2021/09/19 04:04:54;;;;;;;1.45;0.60;;;17.80;67.00;;;;;;4979121;28;96200;-55
2021/09/19 04:07:25;;;;;;;1.63;0.60;;;17.70;67.00;;;;;;4987000;28;97179;-54
2021/09/19 04:09:57;;;;;;;1.75;0.60;;;17.80;67.00;;;;;;4973929;28;96357;-54
2021/09/19 04:12:28;;;;;;;2.10;0.80;;;17.70;66.80;;;;;;5010089;27;95892;-54
2021/09/19 04:15:00;;;;;;;0.90;0.40;;;17.80;66.90;;;;;;4995314;28;96984;-54
2021/09/19 04:17:31;;;;;;;1.55;0.80;;;17.70;66.80;;;;;;4978243;28;96065;-55
2021/09/19 04:20:04;;;;;;;1.35;0.65;;;17.70;66.50;;;;;;4982936;28;95836;-51
2021/09/19 04:22:33;;;;;;;1.52;0.60;;;17.70;66.40;;;;;;4984549;28;95830;-53
2021/09/19 04:25:04;;;;;;;2.72;0.80;;;17.70;66.20;;;;;;4977714;28;96125;-54
2021/09/19 04:27:36;;;;;;;;;;;17.70;66.20;;;;;;4981938;28;96118;-54
2021/09/19 04:30:08;;;;;;;3.30;1.38;;;17.70;66.10;;;;;;4976745;28;95564;-53
2021/09/19 04:32:40;;;;;;;2.08;0.90;;;17.70;66.10;;;;;;4972522;28;95887;-55
2021/09/19 04:35:11;;;;;;;1.90;0.80;;;17.70;66.10;;;;;;4972139;28;95985;-55
2021/09/19 04:37:44;;;;;;;1.50;0.90;;;17.70;58.20;;;;;;4973733;28;95799;-52
2021/09/19 04:40:18;;;;;;;2.97;1.48;;;17.70;65.80;;;;;;4977994;28;95697;-54
2021/09/19 04:42:50;;;;;;;4.00;0.95;;;17.70;66.10;;;;;;4985087;28;95932;-55
2021/09/19 04:45:21;;;;;;;1.90;0.95;;;17.60;65.90;;;;;;5008734;27;98839;-54
2021/09/19 04:47:50;;;;;;;1.90;1.00;;;17.70;65.90;;;;;;4976966;28;98552;-55
2021/09/19 04:50:20;;;;;;;2.28;0.82;;;17.70;65.80;;;;;;4976201;28;95979;-54
2021/09/19 04:52:51;;;;;;;3.13;1.25;;;17.70;65.80;;;;;;4985505;28;95629;-53
2021/09/19 04:55:23;;;;;;;;;;;17.60;65.70;;;;;;4988143;28;96632;-51
2021/09/19 04:57:54;;;;;;;1.33;0.85;;;17.60;66.20;;;;;;4988836;28;95543;-53
2021/09/19 05:00:25;;;;;;;2.15;0.88;;;17.60;65.90;;;;;;4981164;28;95818;-53
2021/09/19 05:02:57;;;;;;;2.30;1.35;;;17.60;65.70;;;;;;4986163;28;95870;-55
2021/09/19 05:05:29;;;;;;;1.30;0.90;;;17.60;65.90;;;;;;4980642;28;96636;-53
2021/09/19 05:07:59;;;;;;;;;;;17.60;65.80;;;;;;4975063;28;96010;-54
2021/09/19 05:10:31;;;;;;;3.37;1.10;;;17.60;65.90;;;;;;4985527;28;99862;-55
2021/09/19 05:13:02;;;;;;;1.20;0.73;;;17.60;65.80;;;;;;4983808;28;95535;-54
2021/09/19 05:15:32;;;;;;;;;;;17.60;65.60;;;;;;5013196;27;96099;-54
2021/09/19 05:18:03;;;;;;;1.98;1.02;;;17.60;65.80;;;;;;4987297;28;95575;-56
2021/09/19 05:20:34;;;;;;;;;;;17.50;66.00;;;;;;4987338;28;95792;-54
2021/09/19 05:23:04;;;;;;;2.28;0.77;;;17.60;66.10;;;;;;4986159;28;95837;-51
2021/09/19 05:25:35;;;;;;;3.40;1.02;;;17.60;66.40;;;;;;4989890;28;96996;-51
2021/09/19 05:28:06;;;;;;;3.35;1.17;;;17.50;66.30;;;;;;4986232;28;95773;-52
2021/09/19 05:30:37;;;;;;;2.72;1.00;;;17.50;66.60;;;;;;4981095;28;97684;-54
2021/09/19 05:33:07;;;;;;;2.73;1.07;;;17.50;66.50;;;;;;4989793;28;95943;-52
2021/09/19 05:35:38;;;;;;;2.60;0.93;;;17.50;66.50;;;;;;4988727;28;95980;-53
2021/09/19 05:38:09;;;;;;;;;;;17.50;66.50;;;;;;4992736;28;96150;-53
2021/09/19 05:40:41;;;;;;;2.22;1.08;;;17.50;66.60;;;;;;4993879;28;95811;-53
2021/09/19 05:43:10;;;;;;;;;;;17.40;66.60;;;;;;4993906;28;95524;-53
2021/09/19 05:45:41;;;;;;;2.70;1.00;;;17.40;66.80;;;;;;4990486;28;95684;-52
2021/09/19 05:48:11;;;;;;;1.55;0.80;;;17.30;66.80;;;;;;4992318;28;95713;-53
2021/09/19 05:50:42;;;;;;;2.50;0.90;;;17.30;67.00;;;;;;4991003;28;95356;-53
2021/09/19 05:53:14;;;;;;;3.75;0.90;;;17.30;67.00;;;;;;4991285;28;95832;-52
2021/09/19 05:55:46;;;;;;;3.05;1.10;;;17.20;67.10;;;;;;4992275;28;96833;-50
2021/09/19 05:58:17;;;;;;;2.00;1.00;;;17.20;67.20;;;;;;4992513;28;95306;-51
2021/09/19 06:00:47;;;;;;;3.05;1.08;;;17.20;67.20;;;;;;4987960;28;95846;-49
2021/09/19 06:03:19;;;;;;;3.35;0.90;;;17.20;67.30;;;;;;4992639;28;95272;-51
2021/09/19 06:05:50;;;;;;;;;;;17.10;67.20;;;;;;4991904;28;95853;-51
2021/09/19 06:08:21;;;;;;;1.03;0.90;;;17.10;67.20;;;;;;4984847;28;95991;-49
2021/09/19 06:10:52;;;;;;;;;;;17.10;67.30;;;;;;4987285;28;95997;-49
2021/09/19 06:13:22;;;;;;;1.65;0.88;;;17.10;67.40;;;;;;4993885;28;95745;-52
2021/09/19 06:15:54;;;;;;;1.70;0.82;;;17.10;67.40;;;;;;4991623;28;97321;-49
2021/09/19 06:18:28;;;;;;;3.75;1.00;;;17.10;67.50;;;;;;4991660;28;95951;-48
2021/09/19 06:21:03;;;;;;;2.90;0.93;;;17.10;67.50;;;;;;4992726;28;95397;-50
2021/09/19 06:23:36;;;;;;;2.20;1.00;;;17.00;67.50;;;;;;4992169;28;95747;-50
2021/09/19 06:26:07;;;;;;;2.65;0.85;;;17.00;67.60;;;;;;4992588;28;96499;-50
2021/09/19 06:28:37;;;;;;;2.92;1.20;;;17.00;67.60;;;;;;4988743;28;95463;-49
2021/09/19 06:31:08;;;;;;;2.08;0.77;;;17.00;67.70;;;;;;4983207;28;95439;-50
2021/09/19 06:33:39;;;;;;;;;;;17.00;67.80;;;;;;4969054;28;96067;-53
2021/09/19 06:36:09;;;;;;;2.20;1.05;;;17.00;67.80;;;;;;4973698;28;96291;-53
2021/09/19 06:38:41;;;;;;;0.65;0.60;;;16.90;67.80;;;;;;4971637;28;95722;-49
2021/09/19 06:41:12;;;;;;;;;;;16.90;67.90;;;;;;4972583;28;95644;-52
2021/09/19 06:43:43;;;;;;;2.45;0.68;;;16.90;67.90;;;;;;4971920;28;95800;-57
2021/09/19 06:46:13;;;;;;;2.50;1.38;;;16.90;67.90;;;;;;4967377;28;96381;-52
2021/09/19 06:48:43;;;;;;;1.83;1.00;;;16.90;68.00;;;;;;4968050;28;95926;-50
2021/09/19 06:51:14;;;;;;;1.42;1.02;;;16.80;67.90;;;;;;4970533;28;95942;-53
2021/09/19 06:53:46;;;;;;;1.33;0.80;;;16.90;68.00;;;;;;5001762;28;95593;-50
2021/09/19 06:56:17;;;;;;;4.03;1.30;;;16.80;67.90;;;;;;4971448;28;95917;-52
2021/09/19 06:58:50;;;;;;;1.95;0.80;;;16.80;67.90;;;;;;4970873;28;95640;-52
2021/09/19 07:01:22;;;;;;;2.28;0.90;;;16.80;68.00;;;;;;4967370;28;95540;-51
2021/09/19 07:03:54;;;;;;;4.63;1.05;;;16.80;68.00;;;;;;4971610;28;95468;-54
2021/09/19 07:06:25;;;;;;;;;;;16.80;68.00;;;;;;5001614;28;98666;-50
2021/09/19 07:08:57;;;;;;;1.93;1.00;;;16.80;68.10;;;;;;4961502;28;96039;-49
2021/09/19 07:11:29;;;;;;;2.00;1.25;;;16.80;68.10;;;;;;4968944;28;95843;-48
2021/09/19 07:14:00;;;;;;;2.13;0.80;;;16.80;68.10;;;;;;4971483;28;95909;-51
2021/09/19 07:16:31;;;;;;;1.88;0.82;;;16.80;68.00;;;;;;4966897;28;95905;-51
2021/09/19 07:19:03;;;;;;;1.77;1.00;;;16.80;68.10;;;;;;4970787;28;95853;-50
2021/09/19 07:21:33;;;;;;;1.40;0.80;;;16.70;68.00;;;;;;4971324;28;95874;-50
2021/09/19 07:24:03;;;;;;;1.77;0.80;;;16.80;68.00;;;;;;4969895;28;95917;-54
2021/09/19 07:26:33;;;;;;;0.80;0.80;;;16.80;68.00;;;;;;4971369;28;96553;-50
2021/09/19 07:29:03;;;;;;;2.00;0.73;;;16.70;68.00;;;;;;4971188;28;95928;-53
2021/09/19 07:31:34;;;;;;;3.00;1.33;;;16.70;68.00;;;;;;4966839;28;96127;-49
2021/09/19 07:34:04;;;;;;;;;;;16.70;68.00;;;;;;4965804;28;95263;-51
2021/09/19 07:36:38;;;;;;;2.03;1.00;;;16.70;68.10;;;;;;4972282;28;96311;-50
2021/09/19 07:39:10;;;;;;;0.82;0.60;;;16.70;68.00;;;;;;4959187;28;95819;-51
2021/09/19 07:41:40;;;;;;;1.88;0.88;;;16.80;68.20;;;;;;4961786;28;96025;-50
2021/09/19 07:44:10;;;;;;;1.58;0.80;;;16.90;68.00;;;;;;4969563;28;95879;-51
2021/09/19 07:46:45;;;;;;;1.63;0.80;;;16.90;67.90;;;;;;4989431;28;95898;-50
2021/09/19 07:49:16;;;;;;;1.02;0.68;;;17.00;67.90;;;;;;4970339;28;95222;-51
2021/09/19 07:51:47;;;;;;;1.20;0.70;;;17.00;67.70;;;;;;4970063;28;95737;-52
2021/09/19 07:54:19;;;;;;;3.25;0.93;;;17.00;67.50;;;;;;4963041;28;96700;-50
2021/09/19 07:56:51;;;;;;;3.17;0.70;;;17.10;57.40;;;;;;4962649;28;95855;-50
2021/09/19 07:59:23;;;;;;;0.68;0.52;;;17.10;67.50;;;;;;4988521;28;99562;-52
2021/09/19 08:01:55;;;;;;;0.95;0.77;;;17.10;67.40;;;;;;4954098;28;97221;-52
2021/09/19 08:04:28;;;;;;;1.05;0.60;;;17.10;67.30;;;;;;4960375;28;95785;-52
2021/09/19 08:07:04;;;;;;;1.42;0.68;;;17.10;67.40;;;;;;4959305;28;96551;-52
2021/09/19 08:09:35;;;;;;;1.33;0.70;;;17.10;67.20;;;;;;4957329;28;95865;-52
2021/09/19 08:12:06;;;;;;;1.65;0.55;;;17.10;67.10;;;;;;4993813;28;95803;-55
2021/09/19 08:14:37;;;;;;;0.90;0.80;;;17.10;67.10;;;;;;4963458;28;96079;-51
2021/09/19 08:17:08;;;;;;;2.50;0.65;;;17.10;67.80;;;;;;4965431;28;95984;-52
2021/09/19 08:19:39;;;;;;;2.03;0.82;;;17.10;67.20;;;;;;4963396;28;95716;-55
2021/09/19 08:22:09;;;;;;;2.35;0.90;;;17.10;67.20;;;;;;4957669;28;96384;-55
2021/09/19 08:24:39;;;;;;;2.17;0.60;;;17.10;67.80;;;;;;4955859;28;97685;-52
2021/09/19 08:27:09;;;;;;;3.45;0.80;;;17.10;67.20;;;;;;4954530;28;96511;-52
2021/09/19 08:29:38;;;;;;;1.90;0.80;;;17.10;67.10;;;;;;4964709;28;95901;-54
2021/09/19 08:32:08;;;;;;;1.40;0.68;;;17.10;67.20;;;;;;4957144;28;99798;-54
2021/09/19 08:34:42;;;;;;;3.05;0.68;;;17.10;67.10;;;;;;4957490;28;95695;-54
2021/09/19 08:37:14;;;;;;;1.42;0.60;;;17.10;67.20;;;;;;4959607;28;97032;-54
2021/09/19 08:39:45;;;;;;;1.75;1.00;;;17.10;67.30;;;;;;4954570;28;97140;-54
2021/09/19 08:42:19;;;;;;;2.38;0.80;;;17.10;67.30;;;;;;4967420;28;95664;-52
2021/09/19 08:44:49;;;;;;;1.73;0.80;;;17.10;67.20;;;;;;4961399;28;96028;-52
2021/09/19 08:47:20;;;;;;;1.52;0.70;;;17.10;67.30;;;;;;4963413;28;96418;-55
2021/09/19 08:49:51;;;;;;;2.95;0.88;;;17.10;67.30;;;;;;4967702;28;95372;-52
2021/09/19 08:52:22;;;;;;;;;;;17.10;67.40;;;;;;4969417;28;95550;-51
2021/09/19 08:54:52;;;;;;;1.38;0.80;;;17.10;67.40;;;;;;4970041;28;98206;-54
2021/09/19 08:57:23;;;;;;;1.88;0.98;;;17.10;67.50;;;;;;4967195;28;96519;-51
2021/09/19 08:59:59;;;;;;;2.88;0.88;;;17.10;67.50;;;;;;4959476;28;96208;-51
2021/09/19 09:02:44;;;;;;;1.83;1.00;;;17.10;67.50;;;;;;4961534;28;95537;-54
2021/09/19 09:05:24;;;;;;;1.23;0.90;;;17.10;67.60;;;;;;4961579;28;95791;-52
2021/09/19 09:08:00;;;;;;;1.67;1.20;;;17.20;57.80;;;;;;4957299;28;96582;-52
2021/09/19 09:10:43;;;;;;;1.38;0.88;;;17.10;67.80;;;;;;4955094;28;95762;-53
2021/09/19 09:13:17;;;;;;;3.13;1.38;;;17.10;68.20;;;;;;4959797;28;95798;-50
2021/09/19 09:15:52;;;;;;;1.55;0.80;;;17.10;67.90;;;;;;4953228;28;95922;-54
2021/09/19 09:18:40;;;;;;;3.13;1.02;;;17.10;67.70;;;;;;4956822;28;95964;-52
2021/09/19 09:21:23;;;;;;;2.40;1.15;;;17.20;67.80;;;;;;4966117;28;96154;-55
2021/09/19 09:23:56;;;;;;;1.50;1.08;;;17.20;67.70;;;;;;4969006;28;96005;-52
2021/09/19 09:26:36;;;;;;;1.67;0.93;;;17.30;67.70;;;;;;4965945;28;95799;-52
2021/09/19 09:29:16;;;;;;;0.95;0.80;;;17.40;67.80;;;;;;4961653;28;95823;-50
2021/09/19 09:31:52;;;;;;;0.75;0.70;;;17.40;67.80;;;;;;4965265;28;97015;-53
2021/09/19 09:34:25;;;;;;;2.90;1.75;;;17.50;68.00;;;;;;4957693;28;97377;-53
2021/09/19 09:36:59;;;;;;;1.02;0.70;;;17.50;68.20;;;;;;4963850;28;95639;-54
2021/09/19 09:39:37;;;;;;;3.88;1.00;;;17.50;68.40;;;;;;4956460;28;97074;-56
2021/09/19 09:42:16;;;;;;;1.67;0.70;;;17.50;68.40;;;;;;4958488;28;95998;-54
2021/09/19 09:44:53;;;;;;;1.42;0.95;;;17.50;68.40;;;;;;4966766;28;95975;-53
2021/09/19 09:47:28;;;;;;;2.38;1.00;;;17.50;68.40;;;;;;4966111;28;95380;-51
2021/09/19 09:50:00;;;;;;;1.90;1.70;;;17.50;68.70;;;;;;4968836;28;95943;-51
2021/09/19 09:52:37;;;;;;;2.90;0.73;;;17.50;68.80;;;;;;4966886;28;95652;-51
2021/09/19 09:55:12;;;;;;;3.13;1.30;;;17.60;68.90;;;;;;4966846;28;95652;-55
2021/09/19 09:58:06;;;;;;;1.95;1.08;;;17.60;68.90;;;;;;4967784;28;95304;-50
2021/09/19 10:00:39;;;;;;;2.25;1.23;;;17.60;69.00;;;;;;4953994;28;95998;-52
2021/09/19 10:03:10;;;;;;;2.25;0.85;;;17.60;69.00;;;;;;4999204;28;96450;-52
2021/09/19 10:05:42;;;;;;;1.27;0.80;;;17.60;68.90;;;;;;4960313;28;98152;-53
2021/09/19 10:08:13;;;;;;;;;;;17.60;69.00;;;;;;4959685;28;95902;-50
2021/09/19 10:10:45;;;;;;;1.23;0.80;;;17.50;68.80;;;;;;4963734;28;95768;-50
2021/09/19 10:13:16;;;;;;;;;;;17.50;68.80;;;;;;4962770;28;95926;-52
2021/09/19 10:15:48;;;;;;;2.47;0.90;;;17.50;68.80;;;;;;4956973;28;95854;-55
2021/09/19 10:18:19;;;;;;;2.17;1.10;;;17.50;68.80;;;;;;4959646;28;96003;-53
2021/09/19 10:20:50;;;;;;;2.33;0.77;;;17.50;68.80;;;;;;4959664;28;95986;-53
2021/09/19 10:23:32;;;;;;;1.85;0.93;;;17.50;68.70;;;;;;4958135;28;95300;-50
2021/09/19 10:26:13;;;;;;;1.17;1.00;;;17.50;68.60;;;;;;4965035;28;96064;-54
2021/09/19 10:28:48;;;;;;;2.00;0.80;;;17.50;68.60;;;;;;4968345;28;96189;-53
2021/09/19 10:31:21;;;;;;;1.90;1.00;;;17.50;68.70;;;;;;4953946;28;96072;-53
2021/09/19 10:34:08;;;;;;;2.95;0.95;;;17.50;68.60;;;;;;4961330;28;95340;-53
2021/09/19 10:36:52;;;;;;;1.08;0.90;;;17.40;68.60;;;;;;4962719;28;96125;-51
2021/09/19 10:39:31;;;;;;;1.88;1.10;;;17.40;68.80;;;;;;4965706;28;95563;-50
2021/09/19 10:42:19;;;;;;;4.30;1.10;;;17.40;68.90;;;;;;4961439;28;97066;-51
2021/09/19 10:44:50;;;;;;;1.52;0.80;;;17.40;68.90;;;;;;4966574;28;95833;-54
2021/09/19 10:47:28;;;;;;;2.47;1.10;;;17.40;69.00;;;;;;4959776;28;95832;-56
2021/09/19 10:50:11;;;;;;;2.05;1.05;;;17.40;69.30;;;;;;4967372;28;97936;-53
2021/09/19 10:52:45;;;;;;;2.03;0.90;;;17.30;69.20;;;;;;4957933;28;97506;-55
2021/09/19 10:55:34;;;;;;;1.75;1.00;;;17.30;69.30;;;;;;4958850;28;95817;-55
2021/09/19 10:58:12;;;;;;;2.45;1.05;;;17.30;69.40;;;;;;4960391;28;95860;-56
2021/09/19 11:00:44;;;;;;;1.13;0.90;;;17.30;69.40;;;;;;4995020;28;97470;-55
2021/09/19 11:03:28;;;;;;;3.08;1.30;;;17.30;69.80;;;;;;4962864;28;99294;-57
2021/09/19 11:06:00;;;;;;;1.45;0.98;;;17.30;70.00;;;;;;4960645;28;95715;-55
2021/09/19 11:08:40;;;;;;;1.48;0.80;;;17.30;70.10;;;;;;4987104;28;95387;-57
2021/09/19 11:11:18;;;;;;;1.40;0.88;;;17.30;70.00;;;;;;4956221;28;95912;-58
2021/09/19 11:13:54;;;;;;;2.60;1.38;;;17.30;70.30;;;;;;4955401;28;95901;-55
2021/09/19 11:16:37;;;;;;;2.55;1.73;;;17.30;70.00;;;;;;4961429;28;95880;-58
2021/09/19 11:19:12;;;;;;;1.52;1.02;;;17.30;70.10;;;;;;4961711;28;97781;-56
2021/09/19 11:21:45;;;;;;;2.85;1.30;;;17.20;70.30;;;;;;4953512;28;96017;-57
2021/09/19 11:24:19;;;;;;;1.10;0.82;;;17.20;70.30;;;;;;4984809;28;96949;-56
2021/09/19 11:26:52;;;;;;;4.00;1.00;;;17.20;70.30;;;;;;4956807;28;95752;-56
2021/09/19 11:29:25;;;;;;;2.42;0.98;;;17.20;70.20;;;;;;4958473;28;95912;-57
2021/09/19 11:31:58;;;;;;;2.22;1.23;;;17.20;70.90;;;;;;4954895;28;95706;-54
2021/09/19 11:34:28;;;;;;;1.23;1.05;;;17.20;70.60;;;;;;4997687;28;96788;-57
2021/09/19 11:37:00;;;;;;;1.77;1.13;;;17.20;70.60;;;;;;4969709;28;95866;-53
2021/09/19 11:39:34;;;;;;;1.00;0.90;;;17.20;70.70;;;;;;4967035;28;95875;-56
2021/09/19 11:42:10;;;;;;;1.98;1.20;;;17.20;61.50;;;;;;4958608;28;95776;-56
2021/09/19 11:44:51;;;;;;;1.95;1.00;;;17.10;70.80;;;;;;4960253;28;95846;-57
2021/09/19 11:47:23;;;;;;;2.47;1.23;;;17.10;70.80;;;;;;4980246;28;96100;-57
2021/09/19 11:49:54;;;;;;;2.72;1.10;;;17.10;71.40;;;;;;4959904;28;95975;-54
2021/09/19 11:52:26;;;;;;;3.28;1.05;;;17.10;71.40;;;;;;4960277;28;95601;-56
2021/09/19 11:54:58;;;;;;;3.22;1.10;;;17.10;71.10;;;;;;4958941;28;95919;-56
2021/09/19 11:57:30;;;;;;;1.55;1.10;;;17.10;71.50;;;;;;4969174;28;96078;-55
2021/09/19 12:00:06;;;;;;;1.83;1.00;;;17.10;71.40;;;;;;4969248;28;95883;-54
2021/09/19 12:02:41;;;;;;;2.22;1.20;;;17.10;71.50;;;;;;4969886;28;96076;-56
2021/09/19 12:05:17;;;;;;;2.42;1.38;;;17.10;71.50;;;;;;4969782;28;95845;-55
2021/09/19 12:07:49;;;;;;;2.72;1.55;;;17.10;71.80;;;;;;4967019;28;96031;-55
2021/09/19 12:10:25;;;;;;;1.77;1.15;;;17.10;71.80;;;;;;4964371;28;97244;-55
2021/09/19 12:12:57;;;;;;;3.30;1.30;;;17.00;71.90;;;;;;5001380;28;95957;-53
2021/09/19 12:15:29;;;;;;;1.83;1.15;;;17.00;71.80;;;;;;4966174;28;99097;-52
2021/09/19 12:18:07;;;;;;;1.95;1.13;;;17.00;71.80;;;;;;4990154;28;96006;-54
2021/09/19 12:20:54;;;;;;;1.95;1.10;;;17.00;71.80;;;;;;4990314;28;95769;-54
2021/09/19 12:23:24;;;;;;;2.17;0.95;;;17.00;71.80;;;;;;4990646;28;95609;-55
2021/09/19 12:25:54;;;;;;;2.63;1.00;;;17.00;72.10;;;;;;4990718;28;95863;-56
2021/09/19 12:28:29;;;;;;;1.65;1.10;;;17.00;72.20;;;;;;4990396;28;95973;-56
2021/09/19 12:31:02;;;;;;;2.97;1.42;;;17.00;72.00;;;;;;4983815;28;95700;-54
2021/09/19 12:33:32;;;;;;;2.03;1.00;;;16.90;72.10;;;;;;4989232;28;95758;-57
2021/09/19 12:36:09;;;;;;;1.00;0.90;;;17.00;72.10;;;;;;4989563;28;96198;-54
2021/09/19 12:38:45;;;;;;;1.50;1.00;;;17.00;72.30;;;;;;4989851;28;95985;-55
2021/09/19 12:41:16;;;;;;;3.15;1.25;;;17.10;62.90;;;;;;4985427;28;95597;-55
2021/09/19 12:43:48;;;;;;;2.70;1.25;;;16.90;72.40;;;;;;4981119;28;95669;-56
2021/09/19 12:46:18;;;;;;;3.60;1.40;;;16.90;72.20;;;;;;4976340;28;96804;-58
2021/09/19 12:48:49;;;;;;;1.20;0.90;;;16.90;72.30;;;;;;4983356;28;95894;-57
2021/09/19 12:51:20;;;;;;;1.25;0.90;;;16.90;72.50;;;;;;4978995;28;95659;-55
2021/09/19 12:53:51;;;;;;;1.83;1.20;;;16.90;72.50;;;;;;4975537;28;95317;-57
2021/09/19 12:56:23;;;;;;;2.20;1.42;;;16.90;72.40;;;;;;4974009;28;95860;-57
2021/09/19 12:58:55;;;;;;;1.55;0.90;;;16.90;72.50;;;;;;4977205;28;95340;-57
2021/09/19 13:01:26;;;;;;;2.45;0.88;;;16.80;72.60;;;;;;4972527;28;97757;-54
2021/09/19 13:03:58;;;;;;;;;;;16.90;72.70;;;;;;4981269;28;95366;-55
2021/09/19 13:06:29;;;;;;;1.93;0.90;;;16.80;72.80;;;;;;4979986;28;96020;-55
2021/09/19 13:09:02;;;;;;;0.90;0.90;;;16.90;72.80;;;;;;4973404;28;95991;-57
2021/09/19 13:11:34;;;;;;;1.17;1.08;;;16.90;72.80;;;;;;4975311;28;95940;-59
2021/09/19 13:14:07;;;;;;;1.70;0.80;;;16.80;72.80;;;;;;4974785;28;95759;-56
2021/09/19 13:16:41;;;;;;;1.55;0.80;;;16.80;72.80;;;;;;4970207;28;95910;-57
2021/09/19 13:19:13;;;;;;;4.57;1.70;;;16.80;72.80;;;;;;4974943;28;95644;-56
2021/09/19 13:21:44;;;;;;;1.20;0.82;;;16.80;72.80;;;;;;4985893;28;95192;-55